createdAt,value
2018-08-06T00:00:40.186Z,97291.52
2018-08-06T00:03:11.078Z,97277.44
2018-08-06T00:05:40.279Z,97281.66
2018-08-06T00:08:10.571Z,97278.59
2018-08-06T00:10:39.768Z,97279.08
2018-08-06T00:13:08.974Z,97278.48
2018-08-06T00:15:38.198Z,97278.23
2018-08-06T00:18:07.471Z,97276.61
2018-08-06T00:20:36.668Z,97271.16
2018-08-06T00:23:06.923Z,97274.39
2018-08-06T00:25:36.100Z,97264.59
2018-08-06T00:28:06.164Z,97266.09
2018-08-06T00:30:35.870Z,97264.20
2018-08-06T00:33:06.330Z,97255.98
2018-08-06T00:35:35.595Z,97256.55
2018-08-06T00:38:05.755Z,97246.98
2018-08-06T00:40:36.095Z,97260.45
2018-08-06T00:43:06.015Z,97252.06
2018-08-06T00:45:35.883Z,97263.22
2018-08-06T00:48:05.408Z,97257.64
2018-08-06T00:50:36.606Z,97251.16
2018-08-06T00:53:07.011Z,97252.70
2018-08-06T00:55:36.246Z,97247.88
2018-08-06T00:58:06.191Z,97246.70
2018-08-06T01:00:35.812Z,97240.31
2018-08-06T01:03:05.042Z,97233.58
2018-08-06T01:05:34.214Z,97230.65
2018-08-06T01:08:03.447Z,97228.73
2018-08-06T01:10:32.711Z,97222.98
2018-08-06T01:13:01.890Z,97227.06
2018-08-06T01:15:32.034Z,97220.38
2018-08-06T01:18:01.339Z,97219.70
2018-08-06T01:20:30.562Z,97211.66
2018-08-06T01:22:59.755Z,97211.90
2018-08-06T01:25:29.258Z,97219.00
2018-08-06T01:27:58.763Z,97204.28
2018-08-06T01:30:28.189Z,97210.14
2018-08-06T01:32:57.419Z,97206.50
2018-08-06T01:35:26.918Z,97197.66
2018-08-06T01:37:56.895Z,97204.21
2018-08-06T01:40:26.124Z,97202.98
2018-08-06T01:42:55.347Z,97196.92
2018-08-06T01:45:25.733Z,97198.89
2018-08-06T01:47:55.639Z,97191.83
2018-08-06T01:50:25.663Z,97184.14
2018-08-06T01:52:55.351Z,97187.86
2018-08-06T01:55:24.518Z,97190.33
2018-08-06T01:57:53.739Z,97185.88
2018-08-06T02:00:23.817Z,97178.56
2018-08-06T02:02:53.165Z,97179.73
2018-08-06T02:05:22.722Z,97177.02
2018-08-06T02:07:52.922Z,97177.13
2018-08-06T02:10:22.612Z,97174.11
2018-08-06T02:12:51.811Z,97173.02
2018-08-06T02:15:21.022Z,97179.52
2018-08-06T02:17:50.250Z,97170.85
2018-08-06T02:20:19.623Z,97172.98
2018-08-06T02:22:49.126Z,97167.03
2018-08-06T02:25:18.334Z,97161.14
2018-08-06T02:27:47.542Z,97159.53
2018-08-06T02:30:17.026Z,97154.05
2018-08-06T02:32:46.515Z,97154.64
2018-08-06T02:35:16.709Z,97155.27
2018-08-06T02:37:46.268Z,97150.67
2018-08-06T02:40:20.963Z,97154.83
2018-08-06T02:42:51.602Z,97154.86
2018-08-06T02:45:20.786Z,97161.52
2018-08-06T02:47:50.892Z,97158.90
2018-08-06T02:50:20.932Z,97149.79
2018-08-06T02:52:52.625Z,97147.33
2018-08-06T02:55:22.115Z,97145.70
2018-08-06T02:57:51.355Z,97143.47
2018-08-06T03:00:20.574Z,97137.59
2018-08-06T03:02:49.827Z,97134.69
2018-08-06T03:05:20.345Z,97126.89
2018-08-06T03:07:49.579Z,97128.14
2018-08-06T03:10:18.779Z,97123.66
2018-08-06T03:12:48.477Z,97120.65
2018-08-06T03:15:17.699Z,97124.58
2018-08-06T03:17:46.930Z,97122.92
2018-08-06T03:20:16.169Z,97125.53
2018-08-06T03:22:45.415Z,97128.21
2018-08-06T03:25:17.079Z,97126.31
2018-08-06T03:27:47.007Z,97130.38
2018-08-06T03:30:17.631Z,97130.11
2018-08-06T03:32:47.915Z,97130.00
2018-08-06T03:35:17.626Z,97129.64
2018-08-06T03:37:47.159Z,97131.26
2018-08-06T03:40:16.395Z,97134.13
2018-08-06T03:42:45.840Z,97130.80
2018-08-06T03:45:15.073Z,97132.67
2018-08-06T03:47:44.487Z,97136.78
2018-08-06T03:50:14.357Z,97137.80
2018-08-06T03:52:43.980Z,97136.44
2018-08-06T03:55:14.379Z,97142.23
2018-08-06T03:57:44.084Z,97140.44
2018-08-06T04:00:15.005Z,97140.22
2018-08-06T04:02:44.698Z,97144.91
2018-08-06T04:05:15.116Z,97144.97
2018-08-06T04:07:44.925Z,97142.86
2018-08-06T04:10:16.587Z,97148.42
2018-08-06T04:12:46.859Z,97151.48
2018-08-06T04:15:16.735Z,97145.30
2018-08-06T04:17:46.676Z,97147.25
2018-08-06T04:20:15.867Z,97150.40
2018-08-06T04:22:45.123Z,97152.50
2018-08-06T04:25:14.668Z,97149.66
2018-08-06T04:27:43.855Z,97147.45
2018-08-06T04:30:14.287Z,97148.67
2018-08-06T04:32:45.720Z,97148.44
2018-08-06T04:35:15.451Z,97145.88
2018-08-06T04:37:46.078Z,97142.89
2018-08-06T04:40:16.095Z,97139.64
2018-08-06T04:42:45.275Z,97143.37
2018-08-06T04:45:15.247Z,97144.17
2018-08-06T04:47:44.735Z,97148.85
2018-08-06T04:50:14.931Z,97144.06
2018-08-06T04:52:45.855Z,97141.55
2018-08-06T04:55:15.811Z,97135.89
2018-08-06T04:57:46.099Z,97140.41
2018-08-06T05:00:16.031Z,97141.53
2018-08-06T05:02:45.527Z,97139.95
2018-08-06T05:05:14.994Z,97138.38
2018-08-06T05:07:45.127Z,97139.81
2018-08-06T05:10:15.639Z,97136.34
2018-08-06T05:12:44.953Z,97133.81
2018-08-06T05:15:14.171Z,97129.65
2018-08-06T05:17:44.408Z,97138.50
2018-08-06T05:20:13.619Z,97134.22
2018-08-06T05:22:42.926Z,97140.12
2018-08-06T05:25:12.407Z,97141.09
2018-08-06T05:27:42.204Z,97140.66
2018-08-06T05:30:13.087Z,97133.84
2018-08-06T05:32:43.495Z,97136.89
2018-08-06T05:35:13.239Z,97133.68
2018-08-06T05:37:43.002Z,97138.49
2018-08-06T05:40:12.535Z,97129.31
2018-08-06T05:42:41.785Z,97133.84
2018-08-06T05:45:11.435Z,97133.13
2018-08-06T05:47:40.667Z,97133.67
2018-08-06T05:50:13.154Z,97136.84
2018-08-06T05:52:44.619Z,97130.91
2018-08-06T05:55:13.891Z,97136.20
2018-08-06T05:57:44.715Z,97131.95
2018-08-06T06:00:17.027Z,97126.13
2018-08-06T06:02:46.822Z,97135.00
2018-08-06T06:05:16.547Z,97137.07
2018-08-06T06:07:45.924Z,97134.62
2018-08-06T06:10:15.840Z,97134.25
2018-08-06T06:12:45.729Z,97145.36
2018-08-06T06:15:16.283Z,97138.98
2018-08-06T06:17:45.531Z,97139.45
2018-08-06T06:20:15.141Z,97146.97
2018-08-06T06:22:44.567Z,97141.82
2018-08-06T06:25:14.243Z,97147.61
2018-08-06T06:27:44.136Z,97144.81
2018-08-06T06:30:15.658Z,97130.61
2018-08-06T06:32:45.585Z,97136.88
2018-08-06T06:35:15.427Z,97137.58
2018-08-06T06:37:45.787Z,97132.38
2018-08-06T06:40:16.254Z,97139.31
2018-08-06T06:42:45.596Z,97126.09
2018-08-06T06:45:14.892Z,97125.47
2018-08-06T06:47:44.337Z,97134.22
2018-08-06T06:50:13.996Z,97137.05
2018-08-06T06:52:44.499Z,97125.05
2018-08-06T06:55:14.099Z,97128.13
2018-08-06T06:57:43.922Z,97126.91
2018-08-06T07:00:14.112Z,97124.03
2018-08-06T07:02:43.566Z,97122.20
2018-08-06T07:05:12.787Z,97128.09
2018-08-06T07:07:42.766Z,97117.69
2018-08-06T07:10:12.972Z,97121.48
2018-08-06T07:12:42.488Z,97124.06
2018-08-06T07:15:16.606Z,97127.72
2018-08-06T07:17:48.247Z,97118.71
2018-08-06T07:20:19.060Z,97126.13
2018-08-06T07:22:49.371Z,97127.80
2018-08-06T07:25:18.633Z,97117.59
2018-08-06T07:27:48.747Z,97121.87
2018-08-06T07:30:19.008Z,97114.55
2018-08-06T07:32:48.239Z,97101.98
2018-08-06T07:35:17.527Z,97100.72
2018-08-06T07:37:47.144Z,97097.08
2018-08-06T07:40:16.583Z,97104.58
2018-08-06T07:42:45.950Z,97105.32
2018-08-06T07:45:17.382Z,97099.93
2018-08-06T07:47:47.058Z,97098.14
2018-08-06T07:50:17.565Z,97097.34
2018-08-06T07:52:47.467Z,97090.90
2018-08-06T07:55:16.795Z,97090.15
2018-08-06T07:57:46.300Z,97088.52
2018-08-06T08:00:17.530Z,97089.54
2018-08-06T08:02:47.791Z,97089.45
2018-08-06T08:05:18.082Z,97080.66
2018-08-06T08:07:48.212Z,97080.27
2018-08-06T08:10:20.406Z,97085.27
2018-08-06T08:12:50.050Z,97084.14
2018-08-06T08:15:23.837Z,97081.47
2018-08-06T08:17:54.437Z,97080.23
2018-08-06T08:20:23.753Z,97079.02
2018-08-06T08:22:52.869Z,97079.84
2018-08-06T08:25:22.936Z,97082.02
2018-08-06T08:27:52.191Z,97085.64
2018-08-06T08:30:22.032Z,97083.16
2018-08-06T08:32:51.224Z,97084.64
2018-08-06T08:35:21.859Z,97084.07
2018-08-06T08:37:51.104Z,97076.52
2018-08-06T08:40:21.489Z,97085.87
2018-08-06T08:42:50.829Z,97079.98
2018-08-06T08:45:20.462Z,97078.70
2018-08-06T08:47:49.687Z,97075.45
2018-08-06T08:50:20.875Z,97067.23
2018-08-06T08:52:50.099Z,97067.42
2018-08-06T08:55:20.133Z,97058.08
2018-08-06T08:57:49.378Z,97057.65
2018-08-06T09:00:21.868Z,97062.67
2018-08-06T09:02:51.880Z,97058.44
2018-08-06T09:05:22.828Z,97049.26
2018-08-06T09:07:52.615Z,97054.29
2018-08-06T09:10:21.976Z,97048.88
2018-08-06T09:12:51.180Z,97040.71
2018-08-06T09:15:23.934Z,97046.55
2018-08-06T09:17:53.180Z,97050.59
2018-08-06T09:20:23.855Z,97043.72
2018-08-06T09:22:53.109Z,97049.67
2018-08-06T09:25:22.328Z,97040.90
2018-08-06T09:27:51.981Z,97041.59
2018-08-06T09:30:22.433Z,97036.89
2018-08-06T09:32:53.924Z,97040.33
2018-08-06T09:35:23.455Z,97038.66
2018-08-06T09:37:52.702Z,97033.47
2018-08-06T09:40:22.968Z,97032.12
2018-08-06T09:42:52.571Z,97037.91
2018-08-06T09:45:22.418Z,97031.70
2018-08-06T09:47:53.522Z,97027.66
2018-08-06T09:50:23.147Z,97036.48
2018-08-06T09:52:53.248Z,97041.30
2018-08-06T09:55:26.199Z,97026.11
2018-08-06T09:57:56.691Z,97025.50
2018-08-06T10:00:31.875Z,97017.16
2018-08-06T10:03:02.732Z,97024.33
2018-08-06T10:05:32.750Z,97014.61
2018-08-06T10:08:03.015Z,97002.91
2018-08-06T10:10:32.510Z,97018.76
2018-08-06T10:13:01.708Z,97006.84
2018-08-06T10:15:30.927Z,96996.84
2018-08-06T10:18:00.155Z,96998.07
2018-08-06T10:20:29.364Z,96989.11
2018-08-06T10:22:58.597Z,96993.84
2018-08-06T10:25:28.204Z,96988.17
2018-08-06T10:27:57.819Z,96978.19
2018-08-06T10:30:27.401Z,96980.72
2018-08-06T10:32:56.546Z,96986.34
2018-08-06T10:35:26.027Z,96987.94
2018-08-06T10:37:56.222Z,96981.81
2018-08-06T10:40:25.537Z,96977.02
2018-08-06T10:42:55.467Z,96974.95
2018-08-06T10:45:25.554Z,96977.27
2018-08-06T10:47:55.308Z,96975.94
2018-08-06T10:50:25.674Z,96965.31
2018-08-06T10:52:55.787Z,96965.95
2018-08-06T10:55:25.219Z,96960.65
2018-08-06T10:57:54.514Z,96948.84
2018-08-06T11:00:24.209Z,96955.11
2018-08-06T11:02:53.396Z,96949.62
2018-08-06T11:05:23.991Z,96949.34
2018-08-06T11:07:53.819Z,96942.89
2018-08-06T11:10:24.419Z,96934.08
2018-08-06T11:12:53.970Z,96942.54
2018-08-06T11:15:24.555Z,96936.30
2018-08-06T11:17:53.919Z,96930.84
2018-08-06T11:20:23.720Z,96924.94
2018-08-06T11:22:52.865Z,96922.91
2018-08-06T11:25:23.360Z,96923.66
2018-08-06T11:27:52.587Z,96917.13
2018-08-06T11:30:23.608Z,96906.66
2018-08-06T11:32:54.601Z,96908.52
2018-08-06T11:35:23.927Z,96902.48
2018-08-06T11:37:54.812Z,96902.78
2018-08-06T11:40:24.020Z,96903.47
2018-08-06T11:42:53.539Z,96890.83
2018-08-06T11:45:23.852Z,96897.95
2018-08-06T11:47:53.054Z,96897.96
2018-08-06T11:50:22.366Z,96895.20
2018-08-06T11:52:51.607Z,96881.44
2018-08-06T11:55:20.742Z,96874.16
2018-08-06T11:57:49.943Z,96877.75
2018-08-06T12:00:21.227Z,96874.60
2018-08-06T12:02:50.595Z,96868.23
2018-08-06T12:05:21.246Z,96863.73
2018-08-06T12:07:50.760Z,96869.13
2018-08-06T12:10:20.668Z,96855.83
2018-08-06T12:12:52.050Z,96859.47
2018-08-06T12:15:21.739Z,96862.73
2018-08-06T12:17:51.196Z,96856.95
2018-08-06T12:20:21.588Z,96856.47
2018-08-06T12:22:51.888Z,96858.95
2018-08-06T12:25:21.107Z,96845.11
2018-08-06T12:27:50.595Z,96850.03
2018-08-06T12:30:21.025Z,96852.50
2018-08-06T12:32:51.348Z,96843.80
2018-08-06T12:35:20.566Z,96840.90
2018-08-06T12:37:49.844Z,96834.02
2018-08-06T12:40:20.413Z,96842.39
2018-08-06T12:42:50.052Z,96841.87
2018-08-06T12:45:19.313Z,96838.37
2018-08-06T12:47:49.015Z,96836.98
2018-08-06T12:50:18.479Z,96827.88
2018-08-06T12:52:49.374Z,96826.34
2018-08-06T12:55:19.028Z,96822.39
2018-08-06T12:57:48.826Z,96825.60
2018-08-06T13:00:27.331Z,96839.16
2018-08-06T13:02:56.768Z,96830.27
2018-08-06T13:05:26.127Z,96824.08
2018-08-06T13:07:55.623Z,96809.67
2018-08-06T13:10:25.360Z,96812.75
2018-08-06T13:12:54.581Z,96803.33
2018-08-06T13:15:24.460Z,96805.93
2018-08-06T13:17:54.026Z,96801.27
2018-08-06T13:20:23.527Z,96799.86
2018-08-06T13:22:52.984Z,96797.39
2018-08-06T13:25:22.178Z,96800.80
2018-08-06T13:27:51.407Z,96800.73
2018-08-06T13:30:20.621Z,96805.73
2018-08-06T13:32:50.283Z,96799.83
2018-08-06T13:35:19.763Z,96800.84
2018-08-06T13:37:49.371Z,96798.09
2018-08-06T13:40:19.139Z,96810.82
2018-08-06T13:42:48.352Z,96800.33
2018-08-06T13:45:17.539Z,96799.66
2018-08-06T13:47:46.836Z,96788.45
2018-08-06T13:50:16.556Z,96785.88
2018-08-06T13:52:46.500Z,96778.89
2018-08-06T13:55:15.931Z,96777.84
2018-08-06T13:57:45.209Z,96770.42
2018-08-06T14:00:17.475Z,96773.80
2018-08-06T14:02:46.897Z,96761.13
2018-08-06T14:05:17.074Z,96774.23
2018-08-06T14:07:47.756Z,96762.66
2018-08-06T14:10:17.867Z,96769.36
2018-08-06T14:12:47.146Z,96763.86
2018-08-06T14:15:16.816Z,96757.66
2018-08-06T14:17:46.268Z,96750.30
2018-08-06T14:20:17.288Z,96758.67
2018-08-06T14:22:46.548Z,96753.25
2018-08-06T14:25:15.767Z,96754.14
2018-08-06T14:27:45.015Z,96742.07
2018-08-06T14:30:15.503Z,96732.99
2018-08-06T14:32:45.154Z,96749.52
2018-08-06T14:35:15.247Z,96749.62
2018-08-06T14:37:44.874Z,96749.86
2018-08-06T14:40:17.035Z,96736.72
2018-08-06T14:42:47.416Z,96732.17
2018-08-06T14:45:16.772Z,96726.37
2018-08-06T14:47:45.987Z,96730.42
2018-08-06T14:50:16.057Z,96730.84
2018-08-06T14:52:45.611Z,96723.50
2018-08-06T14:55:16.208Z,96722.72
2018-08-06T14:57:45.770Z,96715.46
2018-08-06T15:00:17.273Z,96713.30
2018-08-06T15:02:47.812Z,96718.02
2018-08-06T15:05:17.455Z,96707.41
2018-08-06T15:07:47.143Z,96710.42
2018-08-06T15:10:16.627Z,96703.55
2018-08-06T15:12:46.371Z,96710.31
2018-08-06T15:15:17.207Z,96702.10
2018-08-06T15:17:46.783Z,96700.80
2018-08-06T15:20:17.307Z,96700.37
2018-08-06T15:22:46.735Z,96696.66
2018-08-06T15:25:20.468Z,96690.66
2018-08-06T15:27:50.995Z,96691.72
2018-08-06T15:30:20.430Z,96690.47
2018-08-06T15:32:50.026Z,96684.98
2018-08-06T15:35:19.252Z,96678.86
2018-08-06T15:37:48.494Z,96676.81
2018-08-06T15:40:19.696Z,96677.96
2018-08-06T15:42:49.626Z,96673.19
2018-08-06T15:45:19.031Z,96665.49
2018-08-06T15:47:48.515Z,96665.07
2018-08-06T15:50:19.622Z,96670.75
2018-08-06T15:52:48.939Z,96667.48
2018-08-06T15:55:18.159Z,96660.97
2018-08-06T15:57:47.400Z,96653.47
2018-08-06T16:00:17.720Z,96654.67
2018-08-06T16:02:47.180Z,96657.97
2018-08-06T16:05:16.435Z,96649.06
2018-08-06T16:07:45.855Z,96643.73
2018-08-06T16:10:15.534Z,96638.38
2018-08-06T16:12:44.792Z,96635.52
2018-08-06T16:15:15.250Z,96635.41
2018-08-06T16:17:45.083Z,96633.52
2018-08-06T16:20:16.450Z,96638.50
2018-08-06T16:22:45.664Z,96631.03
2018-08-06T16:25:15.325Z,96636.12
2018-08-06T16:27:44.730Z,96637.62
2018-08-06T16:30:18.592Z,96628.93
2018-08-06T16:32:48.335Z,96633.09
2018-08-06T16:35:19.307Z,96629.66
2018-08-06T16:37:50.286Z,96629.77
2018-08-06T16:40:19.502Z,96630.48
2018-08-06T16:42:49.037Z,96618.95
2018-08-06T16:45:18.255Z,96625.03
2018-08-06T16:47:47.480Z,96614.61
2018-08-06T16:50:17.466Z,96612.31
2018-08-06T16:52:46.836Z,96619.56
2018-08-06T16:55:15.962Z,96613.04
2018-08-06T16:57:45.682Z,96607.88
2018-08-06T17:00:20.535Z,96611.61
2018-08-06T17:02:50.508Z,96613.22
2018-08-06T17:05:19.759Z,96605.22
2018-08-06T17:07:51.104Z,96604.14
2018-08-06T17:10:21.111Z,96602.61
2018-08-06T17:12:51.795Z,96601.87
2018-08-06T17:15:21.811Z,96604.41
2018-08-06T17:17:53.259Z,96604.37
2018-08-06T17:20:23.317Z,96606.70
2018-08-06T17:22:53.306Z,96603.81
2018-08-06T17:25:22.956Z,96600.31
2018-08-06T17:27:53.186Z,96596.00
2018-08-06T17:30:23.020Z,96597.64
2018-08-06T17:32:52.209Z,96598.65
2018-08-06T17:35:21.410Z,96598.19
2018-08-06T17:37:50.617Z,96598.31
2018-08-06T17:40:20.115Z,96595.54
2018-08-06T17:42:49.415Z,96594.98
2018-08-06T17:45:22.030Z,96596.74
2018-08-06T17:47:51.667Z,96600.13
2018-08-06T17:50:22.284Z,96595.72
2018-08-06T17:52:52.183Z,96601.08
2018-08-06T17:55:22.188Z,96600.91
2018-08-06T17:57:51.637Z,96601.52
2018-08-06T18:00:21.038Z,96601.66
2018-08-06T18:02:50.641Z,96599.78
2018-08-06T18:05:20.008Z,96596.73
2018-08-06T18:07:49.188Z,96603.31
2018-08-06T18:10:19.195Z,96596.80
2018-08-06T18:12:48.644Z,96603.50
2018-08-06T18:15:18.082Z,96615.75
2018-08-06T18:17:47.255Z,96611.52
2018-08-06T18:20:18.214Z,96610.14
2018-08-06T18:22:47.583Z,96610.78
2018-08-06T18:25:18.227Z,96608.81
2018-08-06T18:27:48.791Z,96609.79
2018-08-06T18:30:19.639Z,96618.50
2018-08-06T18:32:49.277Z,96622.46
2018-08-06T18:35:19.842Z,96616.71
2018-08-06T18:37:50.175Z,96615.28
2018-08-06T18:40:21.003Z,96615.28
2018-08-06T18:42:50.215Z,96618.80
2018-08-06T18:45:20.734Z,96613.96
2018-08-06T18:47:51.533Z,96614.80
2018-08-06T18:50:21.077Z,96613.06
2018-08-06T18:52:50.571Z,96616.70
2018-08-06T18:55:19.999Z,96617.34
2018-08-06T18:57:49.268Z,96619.27
2018-08-06T19:00:20.544Z,96619.64
2018-08-06T19:02:49.831Z,96626.62
2018-08-06T19:05:19.756Z,96627.30
2018-08-06T19:07:49.227Z,96626.80
2018-08-06T19:10:18.751Z,96630.24
2018-08-06T19:12:53.093Z,96622.94
2018-08-06T19:15:22.543Z,96631.21
2018-08-06T19:17:58.157Z,96632.73
2018-08-06T19:20:27.376Z,96634.28
2018-08-06T19:22:56.995Z,96631.98
2018-08-06T19:25:27.119Z,96635.38
2018-08-06T19:27:57.190Z,96635.50
2018-08-06T19:30:31.752Z,96630.29
2018-08-06T19:33:01.641Z,96639.93
2018-08-06T19:35:31.019Z,96636.33
2018-08-06T19:38:01.120Z,96638.66
2018-08-06T19:40:30.331Z,96638.91
2018-08-06T19:43:04.843Z,96639.64
2018-08-06T19:45:34.143Z,96639.06
2018-08-06T19:48:06.115Z,96638.19
2018-08-06T19:50:41.679Z,96641.11
2018-08-06T19:53:10.918Z,96642.46
2018-08-06T19:55:45.324Z,96638.98
2018-08-06T19:58:15.748Z,96644.29
2018-08-06T20:00:44.988Z,96645.20
2018-08-06T20:03:14.203Z,96643.34
2018-08-06T20:05:43.417Z,96649.17
2018-08-06T20:08:12.605Z,96641.22
2018-08-06T20:10:41.837Z,96644.29
2018-08-06T20:13:11.036Z,96651.14
2018-08-06T20:15:40.581Z,96652.68
2018-08-06T20:18:09.940Z,96649.34
2018-08-06T20:20:39.495Z,96647.77
2018-08-06T20:23:09.070Z,96648.55
2018-08-06T20:25:38.286Z,96645.49
2018-08-06T20:28:07.501Z,96654.35
2018-08-06T20:30:36.722Z,96654.94
2018-08-06T20:33:06.698Z,96648.66
2018-08-06T20:35:36.452Z,96653.00
2018-08-06T20:38:06.282Z,96651.62
2018-08-06T20:40:35.503Z,96646.06
2018-08-06T20:43:04.699Z,96651.38
2018-08-06T20:45:33.898Z,96651.64
2018-08-06T20:48:03.115Z,96649.15
2018-08-06T20:50:32.535Z,96658.05
2018-08-06T20:53:02.787Z,96659.84
2018-08-06T20:55:32.043Z,96663.05
2018-08-06T20:58:01.360Z,96663.77
2018-08-06T21:00:30.537Z,96666.09
2018-08-06T21:02:59.782Z,96661.29
2018-08-06T21:05:29.862Z,96659.14
2018-08-06T21:07:59.078Z,96656.03
2018-08-06T21:10:28.530Z,96661.31
2018-08-06T21:12:58.011Z,96661.08
2018-08-06T21:15:27.527Z,96658.08
2018-08-06T21:17:56.748Z,96660.59
2018-08-06T21:20:26.235Z,96663.88
2018-08-06T21:22:55.892Z,96664.67
2018-08-06T21:25:25.052Z,96668.06
2018-08-06T21:27:54.475Z,96669.41
2018-08-06T21:30:23.635Z,96669.84
2018-08-06T21:32:55.744Z,96658.67
2018-08-06T21:35:26.031Z,96663.16
2018-08-06T21:37:56.265Z,96666.64
2018-08-06T21:40:25.975Z,96663.44
2018-08-06T21:42:55.395Z,96670.09
2018-08-06T21:45:24.913Z,96670.53
2018-08-06T21:47:54.163Z,96664.75
2018-08-06T21:50:23.385Z,96664.79
2018-08-06T21:52:52.611Z,96664.88
2018-08-06T21:55:21.839Z,96668.00
2018-08-06T21:57:51.447Z,96670.13
2018-08-06T22:00:37.465Z,96671.88
2018-08-06T22:03:08.843Z,96669.76
2018-08-06T22:05:38.056Z,96666.50
2018-08-06T22:08:08.358Z,96662.25
2018-08-06T22:10:37.717Z,96664.84
2018-08-06T22:13:07.900Z,96664.09
2018-08-06T22:15:37.103Z,96652.41
2018-08-06T22:18:07.207Z,96660.55
2018-08-06T22:20:36.413Z,96655.22
2018-08-06T22:23:06.371Z,96651.89
2018-08-06T22:25:35.554Z,96651.09
2018-08-06T22:28:05.591Z,96650.88
2018-08-06T22:30:34.763Z,96649.23
2018-08-06T22:33:03.978Z,96652.41
2018-08-06T22:35:33.147Z,96649.69
2018-08-06T22:38:02.375Z,96645.54
2018-08-06T22:40:31.525Z,96646.70
2018-08-06T22:43:01.115Z,96638.08
2018-08-06T22:45:31.127Z,96642.26
2018-08-06T22:48:01.248Z,96638.32
2018-08-06T22:50:30.451Z,96637.28
2018-08-06T22:52:59.631Z,96639.08
2018-08-06T22:55:30.012Z,96640.90
2018-08-06T22:57:59.344Z,96634.19
2018-08-06T23:00:28.728Z,96635.91
2018-08-06T23:02:57.926Z,96631.83
2018-08-06T23:05:27.350Z,96635.20
2018-08-06T23:07:56.863Z,96634.38
2018-08-06T23:10:26.049Z,96624.23
2018-08-06T23:12:55.255Z,96628.38
2018-08-06T23:15:24.846Z,96619.27
2018-08-06T23:17:54.121Z,96624.72
2018-08-06T23:20:23.235Z,96624.16
2018-08-06T23:22:52.741Z,96623.97
2018-08-06T23:25:23.826Z,96617.30
2018-08-06T23:27:53.059Z,96613.15
2018-08-06T23:30:22.351Z,96609.94
2018-08-06T23:32:51.563Z,96616.97
2018-08-06T23:35:20.715Z,96623.38
2018-08-06T23:37:50.390Z,96618.32
2018-08-06T23:40:20.340Z,96614.48
2018-08-06T23:42:49.578Z,96612.88
2018-08-06T23:45:18.784Z,96606.91
2018-08-06T23:47:47.987Z,96606.22
2018-08-06T23:50:17.607Z,96607.56
2018-08-06T23:52:47.031Z,96604.53
2018-08-06T23:55:18.038Z,96605.00
2018-08-06T23:57:47.351Z,96601.92
